• Join FlightAware (Why Join?)
  • Login
  • US Flag 
03:02AM EDT


 

Airport Tracker/Info


-or-


 

Live Flight TrackerFlight Track Log ✈ N884FT ✈ 05-Nov-2013 ✈ KMLB - KPIE

Flight Track Log - Related Links

Times and Time Zones

All times are in EST time to prevent confusion due to time zone crossing. See the N884FT flight status page for this flight to view local times or setup timezone preferences in your user account.

Time Position Orientation Groundspeed Altitude Reporting Facility
EST Latitude Longitude Course Direction KTS MPH feet Rate Location/Type
08:07PM 28.1000 -80.6500 90° East 72 83 700  Level Orlando TRACON
08:07PM 28.1000 -80.6333 90° East 72 83 1,100 900 Climbing Orlando TRACON
08:08PM 28.1000 -80.6167 90° East 79 91 1,800 660 Climbing Orlando TRACON
08:09PM 28.1000 -80.6000 90° East 108 124 2,400 540 Climbing Orlando TRACON
08:10PM 28.0667 -80.6167 204° Southwest 135 155 3,000 600 Climbing Orlando TRACON
08:11PM 28.0833 -80.6500 300° West 141 162 3,600 480 Climbing Orlando TRACON
08:12PM 28.0833 -80.7000 270° West 146 168 4,000 180 Climbing Orlando TRACON
08:13PM 28.0833 -80.7500 270° West 157 181 4,000  Level Orlando TRACON
08:14PM 28.0833 -80.8000 270° West 159 183 4,000  Level Orlando TRACON
08:15PM 28.0833 -80.8500 270° West 159 183 4,000  Level Orlando TRACON
08:16PM 28.1000 -80.9000 291° West 161 185 4,000  Level Orlando TRACON
08:17PM 28.1000 -80.9500 270° West 163 188 4,000  Level Orlando TRACON
08:18PM 28.1000 -81.0000 270° West 160 184 4,100  Climbing Orlando TRACON
08:19PM 28.1000 -81.0500 270° West 168 193 4,000 -60 Descending Orlando TRACON
08:20PM 28.1000 -81.1000 270° West 161 185 4,000  Level Orlando TRACON
08:21PM 28.1000 -81.1500 270° West 163 188 4,000  Level Orlando TRACON
08:22PM 28.1000 -81.2000 270° West 166 191 4,000  Level Orlando TRACON
08:23PM 28.0833 -81.2500 249° West 164 189 4,000  Level Orlando TRACON
08:24PM 28.0833 -81.3000 270° West 164 189 4,000  Level Orlando TRACON
08:25PM 28.0667 -81.3500 249° West 161 185 4,000  Level Orlando TRACON
08:26PM 28.0667 -81.4000 270° West 164 189 4,000  Level Orlando TRACON
08:27PM 28.0667 -81.4500 270° West 162 186 4,000  Level Orlando TRACON
08:28PM 28.0500 -81.5000 249° West 162 186 4,000  Level Orlando TRACON
08:30PM 28.0333 -81.6167 261° West 162 186 4,000  Level Tampa TRACON
08:31PM 28.0333 -81.6667 270° West 163 188 4,000  Level Tampa TRACON
08:32PM 28.0167 -81.7167 249° West 158 182 4,000  Level Tampa TRACON
08:33PM 28.0167 -81.7667 270° West 159 183 4,000  Level Tampa TRACON
08:34PM 28.0167 -81.8167 270° West 159 183 4,000  Level Tampa TRACON
08:35PM 28.0000 -81.8667 249° West 162 186 4,000  Level Tampa TRACON
08:36PM 28.0000 -81.9167 270° West 161 185 4,000  Level Tampa TRACON
08:37PM 28.0000 -81.9667 270° West 159 183 4,000  Level Tampa TRACON
08:38PM 28.0000 -82.0167 270° West 160 184 4,000  Level Tampa TRACON
08:39PM 28.0000 -82.0667 270° West 160 184 4,000  Level Tampa TRACON
08:40PM 28.0000 -82.1167 270° West 158 182 4,000  Level Tampa TRACON
08:41PM 28.0000 -82.1667 270° West 161 185 4,000  Level Tampa TRACON
08:42PM 27.9833 -82.2167 249° West 160 184 4,000  Level Tampa TRACON
08:44PM 27.9833 -82.2833 270° West 160 184 4,000  Level Tampa TRACON
08:45PM 27.9833 -82.3333 270° West 161 185 4,000  Level Tampa TRACON
08:46PM 27.9833 -82.3833 270° West 159 183 4,000  Level Tampa TRACON
08:47PM 27.9833 -82.4333 270° West 160 184 4,000  Level Tampa TRACON
08:48PM 27.9667 -82.4833 249° West 160 184 4,000  Level Tampa TRACON
08:49PM 27.9667 -82.5333 270° West 162 186 4,000  Level Tampa TRACON
08:50PM 27.9667 -82.5833 270° West 161 185 4,000  Level Tampa TRACON
08:51PM 27.9667 -82.6333 270° West 160 184 4,000  Level Tampa TRACON
08:52PM 27.9500 -82.6833 249° West 158 182 4,000  Level Tampa TRACON
08:53PM 27.9167 -82.7167 221° Southwest 144 166 4,100  Climbing Tampa TRACON
08:54PM 27.8833 -82.7333 204° Southwest 138 159 4,100 -60 Level Tampa TRACON
08:55PM 27.8500 -82.7333 180° South 131 151 4,000 -120 Descending Tampa TRACON
08:56PM 27.8167 -82.7333 180° South 131 151 3,900 -300 Descending Tampa TRACON
08:57PM 27.7833 -82.7333 180° South 140 161 3,400 -540 Descending Tampa TRACON
08:58PM 27.7500 -82.7000 138° Southeast 114 131 2,900 -660 Descending Tampa TRACON
08:59PM 27.7500 -82.6667 90° East 97 112 2,100 -420 Descending Tampa TRACON
09:00PM 27.7667 -82.6667 360° North 101 116 2,100 -60 Level Tampa TRACON
09:01PM 27.8000 -82.6667 360° North 108 124 2,000 -420 Descending Tampa TRACON
09:01PM 27.8167 -82.6667 360° North 101 116 1,400 -540 Descending Tampa TRACON
09:03PM 27.8500 -82.6833 336° Northwest 90 104 1,000 -480 Descending Tampa TRACON
09:04PM 27.8833 -82.6833 360° North 100 115 500 -120 Descending Tampa TRACON
09:05PM 27.9167 -82.7000 336° Northwest 85 98 700 300 Climbing Tampa TRACON
09:07PM 27.9500 -82.7167 336° Northwest 126 145 1,500 720 Climbing Tampa TRACON